Time;durP1;ratioP1;P1;durP2;ratioP2;P2;SDS_P1;SDS_P2;PMS_P1;PMS_P2;Temp;Humidity;BMP_temperature;BMP_pressure;BME280_temperature;BME280_humidity;BME280_pressure;Samples;Min_cycle;Max_cycle;Signal;HPM_P1;HPM_P2
2023/01/23 00:02:22;;;;;;;37.57;25.57;;;-0.10;99.90;;;0.53;100.00;99069.75;5206924;28;20215;-60
2023/01/23 00:04:55;;;;;;;36.27;26.43;;;-0.20;99.90;;;0.51;100.00;99071.19;5207886;28;20226;-59
2023/01/23 00:07:28;;;;;;;36.87;25.97;;;-0.20;99.90;;;0.53;100.00;99071.38;5208536;28;20284;-59
2023/01/23 00:10:03;;;;;;;40.40;28.27;;;-0.20;99.90;;;0.53;100.00;99081.44;5205793;28;20204;-60
2023/01/23 00:12:36;;;;;;;41.13;28.40;;;-0.10;99.90;;;0.50;100.00;99066.88;5209911;28;20258;-60
2023/01/23 00:15:11;;;;;;;41.13;28.37;;;-0.10;99.90;;;0.47;100.00;99076.59;5206258;28;20607;-59
2023/01/23 00:17:44;;;;;;;44.77;30.57;;;-0.10;99.90;;;0.49;100.00;99081.78;5211099;28;20257;-58
2023/01/23 00:20:17;;;;;;;48.33;31.23;;;-0.10;99.90;;;0.53;100.00;99078.91;5207485;28;20219;-60
2023/01/23 00:22:51;;;;;;;43.13;29.73;;;-0.10;99.90;;;0.57;100.00;99081.06;5208330;28;20722;-58
2023/01/23 00:25:26;;;;;;;42.73;29.90;;;-0.10;99.90;;;0.57;100.00;99073.50;5209118;28;20269;-58
2023/01/23 00:27:59;;;;;;;42.80;30.17;;;-0.10;99.90;;;0.56;100.00;99077.66;5208927;28;20284;-60
2023/01/23 00:30:33;;;;;;;40.07;29.17;;;-0.10;99.90;;;0.57;100.00;99076.94;5207101;28;20641;-59
2023/01/23 00:33:06;;;;;;;45.23;30.63;;;-0.10;99.90;;;0.57;100.00;99073.50;5207901;28;20230;-60
2023/01/23 00:35:39;;;;;;;43.73;29.87;;;0.00;99.90;;;0.55;100.00;99080.00;5210600;28;20210;-60
2023/01/23 00:38:12;;;;;;;47.67;29.63;;;-0.10;99.90;;;0.58;100.00;99075.31;5210139;28;20671;-60
2023/01/23 00:40:47;;;;;;;49.10;30.80;;;-0.10;99.90;;;0.64;100.00;99076.91;5209714;28;20250;-58
2023/01/23 00:43:21;;;;;;;46.40;31.17;;;-0.10;99.90;;;0.64;100.00;99078.53;5207939;28;20232;-60
2023/01/23 00:45:54;;;;;;;46.90;31.43;;;0.00;99.90;;;0.63;100.00;99071.69;5213823;28;20204;-60
2023/01/23 00:48:27;;;;;;;43.83;30.50;;;-0.10;99.90;;;0.65;100.00;99075.28;5204584;28;21765;-60
2023/01/23 00:51:00;;;;;;;48.37;32.23;;;-0.10;99.90;;;0.70;100.00;99066.66;5208479;28;21933;-60
2023/01/23 00:53:33;;;;;;;46.73;31.50;;;-0.10;99.90;;;0.65;100.00;99077.81;5213274;28;20220;-59
2023/01/23 00:56:09;;;;;;;47.83;30.03;;;0.00;99.90;;;0.62;100.00;99087.50;5212373;28;20208;-60
2023/01/23 00:58:42;;;;;;;52.33;33.37;;;-0.10;99.90;;;0.63;100.00;99080.16;5206881;28;20207;-59
2023/01/23 01:01:17;;;;;;;50.80;31.00;;;0.00;99.90;;;0.63;100.00;99090.22;5209737;28;20215;-60
2023/01/23 01:03:50;;;;;;;48.60;31.43;;;0.00;99.90;;;0.58;100.00;99085.38;5204843;28;20225;-59
2023/01/23 01:06:24;;;;;;;49.53;31.40;;;0.00;99.90;;;0.56;100.00;99095.25;5210188;28;20754;-59
2023/01/23 01:08:57;;;;;;;46.43;31.47;;;0.00;99.90;;;0.58;100.00;99100.47;5206162;28;20304;-58
2023/01/23 01:11:31;;;;;;;43.80;31.10;;;0.00;99.90;;;0.53;100.00;99096.53;5207755;28;20253;-58
2023/01/23 01:14:05;;;;;;;41.30;27.90;;;-0.10;99.90;;;0.56;100.00;99104.41;5209121;28;20250;-60
2023/01/23 01:16:43;;;;;;;40.43;27.93;;;-0.10;99.90;;;0.60;100.00;99107.47;5209773;28;20302;-60
2023/01/23 01:19:17;;;;;;;42.00;28.33;;;-0.10;99.90;;;0.61;100.00;99106.75;5205936;28;20235;-61
2023/01/23 01:21:51;;;;;;;45.30;30.77;;;0.00;99.90;;;0.62;100.00;99106.00;5207396;28;20984;-60
2023/01/23 01:24:25;;;;;;;42.00;28.70;;;0.00;99.90;;;0.64;100.00;99107.09;5206836;28;20596;-57
2023/01/23 01:26:59;;;;;;;45.07;30.90;;;0.10;99.90;;;0.68;100.00;99119.28;5210323;28;20667;-59
2023/01/23 01:29:33;;;;;;;41.50;29.83;;;0.10;99.90;;;0.67;100.00;99111.59;5218144;28;20296;-57
2023/01/23 01:32:06;;;;;;;42.10;28.90;;;0.10;99.90;;;0.69;100.00;99110.16;5211614;28;20673;-57
2023/01/23 01:34:39;;;;;;;43.63;30.37;;;0.10;99.90;;;0.67;100.00;99120.03;5206439;28;20261;-59
2023/01/23 01:37:12;;;;;;;42.70;29.13;;;0.00;99.90;;;0.67;100.00;99107.44;5205517;28;20737;-58
2023/01/23 01:39:45;;;;;;;45.00;29.97;;;0.10;99.90;;;0.71;100.00;99111.19;5207073;28;21182;-60
2023/01/23 01:42:20;;;;;;;43.30;29.33;;;0.10;99.90;;;0.72;100.00;99115.53;5205215;28;20224;-60
2023/01/23 01:44:56;;;;;;;38.70;27.87;;;0.10;99.90;;;0.76;100.00;99122.69;5206240;28;20248;-60
2023/01/23 01:47:29;;;;;;;36.63;27.17;;;0.10;99.90;;;0.78;100.00;99123.78;5208318;28;20208;-62
2023/01/23 01:50:04;;;;;;;36.97;26.93;;;0.10;99.90;;;0.79;100.00;99123.06;5208081;28;20205;-59
2023/01/23 01:52:37;;;;;;;35.20;24.80;;;0.10;99.90;;;0.73;100.00;99107.25;5205934;28;20194;-59
2023/01/23 01:55:11;;;;;;;36.40;26.80;;;0.10;99.90;;;0.76;100.00;99117.66;5203986;28;20233;-63
2023/01/23 01:57:47;;;;;;;37.57;26.90;;;0.10;99.90;;;0.75;100.00;99120.91;5206096;28;20225;-63
2023/01/23 02:00:20;;;;;;;37.10;25.77;;;0.10;99.90;;;0.73;100.00;99117.31;5208887;28;20724;-60
2023/01/23 02:02:58;;;;;;;31.63;24.27;;;0.10;99.90;;;0.72;100.00;99117.16;5207957;28;20654;-60
2023/01/23 02:05:35;;;;;;;33.27;25.10;;;0.10;99.90;;;0.77;100.00;99114.41;5209622;28;20259;-61
2023/01/23 02:08:14;;;;;;;32.70;24.87;;;0.10;99.90;;;0.78;100.00;99116.22;5204464;28;20216;-60
2023/01/23 02:10:48;;;;;;;34.57;24.80;;;0.20;99.90;;;0.77;100.00;99113.53;5204435;28;20288;-59
2023/01/23 02:13:32;;;;;;;31.23;23.93;;;0.20;99.90;;;0.82;100.00;99115.84;5205661;28;20216;-57
2023/01/23 02:16:07;;;;;;;31.43;23.80;;;0.20;99.90;;;0.80;100.00;99114.81;5209266;28;20373;-60
2023/01/23 02:18:46;;;;;;;35.07;25.40;;;0.10;99.90;;;0.83;100.00;99106.69;5208324;28;20299;-60
2023/01/23 02:21:22;;;;;;;39.73;27.97;;;0.20;99.90;;;0.79;100.00;99102.91;5205203;28;20253;-61
2023/01/23 02:24:12;;;;;;;40.07;28.90;;;0.20;99.90;;;0.80;100.00;99102.22;5207258;28;20231;-57
2023/01/23 02:26:46;;;;;;;40.73;27.17;;;0.20;99.90;;;0.82;100.00;99105.78;5209116;28;20325;-56
2023/01/23 02:29:20;;;;;;;38.17;27.47;;;0.20;99.90;;;0.85;100.00;99098.59;5208259;28;20288;-59
2023/01/23 02:31:54;;;;;;;36.30;27.10;;;0.20;99.90;;;0.90;100.00;99104.16;5204945;28;20211;-60
2023/01/23 02:34:28;;;;;;;38.87;27.67;;;0.10;99.90;;;0.93;100.00;99108.66;5207856;28;20311;-57
2023/01/23 02:37:02;;;;;;;38.23;27.87;;;0.10;99.90;;;0.90;100.00;99111.72;5207335;28;20208;-57
2023/01/23 02:39:36;;;;;;;40.07;28.27;;;0.10;99.90;;;0.80;100.00;99122.34;5208831;28;20237;-60
2023/01/23 02:42:11;;;;;;;36.40;26.07;;;0.10;99.90;;;0.76;100.00;99121.81;5209770;28;20247;-61
2023/01/23 02:44:44;;;;;;;37.60;26.23;;;0.10;99.90;;;0.75;100.00;99110.84;5210722;28;20318;-63
2023/01/23 02:47:17;;;;;;;39.67;29.07;;;0.00;99.90;;;0.70;100.00;99116.97;5213224;28;20266;-57
2023/01/23 02:49:50;;;;;;;35.87;26.93;;;0.00;99.90;;;0.68;100.00;99110.84;5208475;28;20199;-60
2023/01/23 02:52:23;;;;;;;40.27;26.73;;;0.00;99.90;;;0.72;100.00;99110.50;5212308;28;20216;-57
2023/01/23 02:54:56;;;;;;;38.83;27.03;;;0.10;99.90;;;0.73;100.00;99117.31;5210751;28;20690;-56
2023/01/23 02:57:31;;;;;;;38.40;27.50;;;0.10;99.90;;;0.77;100.00;99111.91;5210049;28;20299;-58
2023/01/23 03:00:18;;;;;;;37.13;25.93;;;0.10;99.90;;;0.80;100.00;99117.31;5211391;28;20297;-61
2023/01/23 03:02:53;;;;;;;37.43;26.50;;;0.10;99.90;;;0.80;100.00;99114.81;5210311;28;20257;-59
2023/01/23 03:05:27;;;;;;;36.83;26.10;;;0.10;99.90;;;0.74;100.00;99115.69;5210522;28;20306;-60
2023/01/23 03:08:00;;;;;;;35.33;25.60;;;0.10;99.90;;;0.76;100.00;99115.16;5211784;28;20300;-59
2023/01/23 03:10:33;;;;;;;37.43;26.37;;;0.10;99.90;;;0.79;100.00;99119.66;5207868;28;20303;-60
2023/01/23 03:13:10;;;;;;;37.63;27.17;;;0.10;99.90;;;0.76;100.00;99111.75;5213012;28;20224;-60
2023/01/23 03:15:43;;;;;;;38.90;26.80;;;0.10;99.90;;;0.74;100.00;99109.03;5210567;28;20202;-59
2023/01/23 03:18:16;;;;;;;35.33;25.03;;;0.10;99.90;;;0.78;100.00;99116.22;5207388;28;20304;-59
2023/01/23 03:20:50;;;;;;;34.47;25.07;;;0.10;99.90;;;0.71;100.00;99103.66;5210443;28;20317;-59
2023/01/23 03:23:22;;;;;;;34.50;24.87;;;0.10;99.90;;;0.78;100.00;99101.13;5211331;28;20227;-58
2023/01/23 03:25:58;;;;;;;31.73;24.70;;;0.10;99.90;;;0.80;100.00;99109.78;5208416;28;20600;-60
2023/01/23 03:31:23;;;;;;;36.67;25.97;;;0.10;99.90;;;0.86;100.00;99105.44;5207282;28;20219;-59
2023/01/23 03:33:56;;;;;;;37.00;25.73;;;0.20;99.90;;;0.84;100.00;99100.94;5211032;28;20314;-60
2023/01/23 03:36:29;;;;;;;34.00;24.73;;;0.20;99.90;;;0.83;100.00;99105.09;5207686;28;20674;-61
2023/01/23 03:41:54;;;;;;;36.73;26.33;;;0.10;99.90;;;0.81;100.00;99091.41;5214446;28;20211;-60
2023/01/23 03:44:29;;;;;;;36.67;26.73;;;0.10;99.90;;;0.76;100.00;99087.47;5211051;28;20289;-60
2023/01/23 03:47:02;;;;;;;35.90;24.47;;;0.10;99.90;;;0.79;100.00;99092.84;5212703;28;20203;-58
2023/01/23 03:49:35;;;;;;;33.80;24.20;;;0.10;99.90;;;0.84;100.00;99098.44;5207645;28;20215;-60
2023/01/23 03:52:08;;;;;;;32.27;23.10;;;0.10;99.90;;;0.85;100.00;99105.25;5211385;28;20217;-58
2023/01/23 03:54:41;;;;;;;33.27;24.67;;;0.20;99.90;;;0.80;100.00;99104.75;5208135;28;20233;-56
2023/01/23 03:57:14;;;;;;;30.00;22.13;;;0.10;99.90;;;0.78;100.00;99108.69;5212794;28;20202;-58
2023/01/23 03:59:48;;;;;;;32.27;22.43;;;0.20;99.90;;;0.83;100.00;99110.13;5208465;28;20587;-59
2023/01/23 04:02:22;;;;;;;32.73;23.33;;;0.20;99.90;;;0.84;100.00;99116.03;5206493;28;20200;-60
2023/01/23 04:04:55;;;;;;;31.77;23.30;;;0.20;99.90;;;0.85;100.00;99125.38;5210814;28;20221;-58
2023/01/23 04:07:28;;;;;;;31.67;23.43;;;0.20;99.90;;;0.89;100.00;99125.91;5209968;28;20217;-61
2023/01/23 04:10:02;;;;;;;33.17;22.80;;;0.20;99.90;;;0.94;100.00;99133.06;5207395;28;20194;-61
2023/01/23 04:12:35;;;;;;;32.47;23.60;;;0.20;99.90;;;0.96;100.00;99139.19;5213834;28;20670;-60
2023/01/23 04:15:11;;;;;;;33.60;25.07;;;0.20;99.90;;;0.98;100.00;99140.28;5207857;28;20293;-60
2023/01/23 04:17:45;;;;;;;34.17;24.60;;;0.20;99.90;;;0.96;100.00;99146.75;5212032;28;20213;-61
2023/01/23 04:20:18;;;;;;;32.07;23.47;;;0.20;99.90;;;0.93;100.00;99146.41;5208327;28;20638;-58
2023/01/23 04:22:51;;;;;;;39.77;28.53;;;0.20;99.90;;;0.82;100.00;99151.09;5210847;28;20685;-60
2023/01/23 04:25:25;;;;;;;35.27;25.03;;;0.10;99.90;;;0.86;100.00;99140.66;5212680;28;20233;-60
2023/01/23 04:27:57;;;;;;;36.00;26.00;;;0.20;99.90;;;0.88;100.00;99144.22;5211785;28;20208;-60
2023/01/23 04:30:32;;;;;;;34.50;25.17;;;0.20;99.90;;;0.92;100.00;99149.63;5208859;28;20909;-62
2023/01/23 04:33:05;;;;;;;34.77;23.63;;;0.20;99.90;;;0.89;100.00;99148.56;5211430;28;20627;-59
2023/01/23 04:35:38;;;;;;;31.00;23.40;;;0.20;99.90;;;0.89;100.00;99146.06;5205876;28;20574;-59
2023/01/23 04:38:11;;;;;;;34.63;24.10;;;0.30;99.90;;;0.88;100.00;99150.88;5208422;28;20215;-60
2023/01/23 04:40:46;;;;;;;33.67;23.70;;;0.30;99.90;;;0.93;100.00;99146.41;5207816;28;20204;-62
2023/01/23 04:43:19;;;;;;;33.53;24.70;;;0.30;99.90;;;1.00;100.00;99153.91;5207656;28;20260;-58
2023/01/23 04:45:55;;;;;;;36.67;25.50;;;0.30;99.90;;;0.98;100.00;99146.19;5210265;28;20208;-61
2023/01/23 04:48:28;;;;;;;38.47;25.30;;;0.30;99.90;;;0.94;100.00;99155.72;5209267;28;20905;-60
2023/01/23 04:51:01;;;;;;;30.93;23.23;;;0.30;99.90;;;0.93;100.00;99151.44;5208353;28;20237;-59
2023/01/23 04:53:35;;;;;;;33.77;23.83;;;0.20;99.90;;;0.89;100.00;99150.19;5205158;28;20220;-60
2023/01/23 04:56:08;;;;;;;33.70;24.43;;;0.20;99.90;;;0.89;100.00;99148.56;5205687;28;20198;-58
2023/01/23 04:58:41;;;;;;;33.93;25.27;;;0.30;99.90;;;0.87;100.00;99150.00;5212178;28;20206;-60
2023/01/23 05:01:15;;;;;;;34.57;25.27;;;0.30;99.90;;;0.96;100.00;99149.25;5215274;28;20212;-58
2023/01/23 05:03:49;;;;;;;36.23;25.50;;;0.30;99.90;;;0.98;100.00;99143.69;5213723;28;20227;-57
2023/01/23 05:06:22;;;;;;;33.83;24.97;;;0.30;99.90;;;0.95;100.00;99145.84;5213921;28;20213;-60
2023/01/23 05:08:55;;;;;;;34.57;24.53;;;0.20;99.90;;;0.86;100.00;99143.19;5206995;28;20641;-58
2023/01/23 05:11:28;;;;;;;33.97;24.13;;;0.30;99.90;;;0.91;100.00;99138.66;5217941;28;20201;-61
2023/01/23 05:14:01;;;;;;;32.57;23.63;;;0.30;99.90;;;0.95;100.00;99134.91;5210257;28;20745;-57
2023/01/23 05:16:35;;;;;;;35.30;25.27;;;0.30;99.90;;;0.98;100.00;99136.13;5219018;28;20300;-58
2023/01/23 05:19:08;;;;;;;34.70;24.13;;;0.30;99.90;;;0.93;100.00;99139.75;5210745;28;20312;-61
2023/01/23 05:21:41;;;;;;;36.30;24.23;;;0.30;99.90;;;0.92;100.00;99144.59;5214211;28;20214;-60
2023/01/23 05:24:14;;;;;;;32.30;24.67;;;0.30;99.90;;;0.93;100.00;99147.28;5205993;28;20696;-59
2023/01/23 05:26:47;;;;;;;31.30;23.40;;;0.20;99.90;;;0.94;100.00;99145.66;5213543;28;20235;-58
2023/01/23 05:29:20;;;;;;;35.13;24.43;;;0.30;99.90;;;0.93;100.00;99142.25;5209609;28;20267;-62
2023/01/23 05:31:55;;;;;;;33.47;24.90;;;0.20;99.90;;;0.93;100.00;99146.41;5213493;28;20291;-59
2023/01/23 05:34:28;;;;;;;34.40;25.93;;;0.20;99.90;;;0.92;100.00;99149.63;5213466;28;20263;-58
2023/01/23 05:37:01;;;;;;;30.23;23.30;;;0.20;99.90;;;0.92;100.00;99149.63;5209917;28;20209;-61
2023/01/23 05:39:34;;;;;;;34.53;23.87;;;0.30;99.90;;;0.92;100.00;99154.66;5208277;28;20676;-58
2023/01/23 05:42:07;;;;;;;33.00;22.37;;;0.30;99.90;;;0.88;100.00;99158.44;5211503;28;20215;-60
2023/01/23 05:44:40;;;;;;;34.60;24.07;;;0.30;99.90;;;0.89;100.00;99165.28;5213588;28;20229;-60
2023/01/23 05:47:14;;;;;;;34.27;26.23;;;0.20;99.90;;;0.98;100.00;99155.38;5213833;28;20303;-60
2023/01/23 05:49:47;;;;;;;35.57;28.33;;;0.30;99.90;;;0.98;100.00;99167.97;5219900;28;20278;-60
2023/01/23 05:52:21;;;;;;;42.03;32.13;;;0.30;99.90;;;0.94;100.00;99161.66;5218075;28;20214;-60
2023/01/23 05:54:54;;;;;;;36.60;27.30;;;0.20;99.90;;;0.94;100.00;99163.28;5214735;28;20221;-61
2023/01/23 05:57:27;;;;;;;34.90;26.13;;;0.30;99.90;;;0.94;100.00;99166.69;5209789;28;20693;-60
2023/01/23 06:00:00;;;;;;;40.80;29.17;;;0.30;99.90;;;0.99;100.00;99162.19;5221764;28;20241;-60
2023/01/23 06:02:35;;;;;;;36.47;26.90;;;0.30;99.90;;;0.98;100.00;99171.38;5222357;28;20213;-58
2023/01/23 06:05:10;;;;;;;33.57;23.63;;;0.30;99.90;;;0.97;100.00;99174.59;5215870;28;20270;-59
2023/01/23 06:07:43;;;;;;;28.70;21.53;;;0.30;99.90;;;0.94;100.00;99183.41;5218053;28;20246;-60
2023/01/23 06:10:16;;;;;;;31.77;23.50;;;0.30;99.90;;;0.94;100.00;99184.31;5217881;28;20233;-60
2023/01/23 06:12:50;;;;;;;33.43;24.83;;;0.30;99.90;;;0.96;100.00;99192.06;5212068;28;20308;-60
2023/01/23 06:15:23;;;;;;;29.90;21.80;;;0.30;99.90;;;0.93;100.00;99189.19;5222746;28;20197;-57
2023/01/23 06:17:57;;;;;;;28.97;19.30;;;0.30;99.90;;;0.98;100.00;99185.59;5218726;28;20209;-61
2023/01/23 06:20:30;;;;;;;26.80;18.97;;;0.40;99.90;;;0.80;100.00;99200.34;5218942;28;20219;-60
2023/01/23 06:23:03;;;;;;;25.33;18.17;;;0.30;99.90;;;0.93;100.00;99196.72;5217685;28;20651;-58
2023/01/23 06:25:37;;;;;;;27.90;19.27;;;0.40;99.90;;;0.95;100.00;99196.19;5217091;28;20257;-58
2023/01/23 06:28:10;;;;;;;25.07;18.43;;;0.40;99.90;;;1.06;100.00;99204.94;5221659;28;20203;-60
2023/01/23 06:30:43;;;;;;;27.77;18.73;;;0.40;99.90;;;0.99;100.00;99207.50;5222102;28;20212;-58
2023/01/23 06:33:17;;;;;;;24.50;16.80;;;0.40;99.90;;;1.02;100.00;99215.41;5213850;28;20236;-61
2023/01/23 06:35:58;;;;;;;25.80;17.70;;;0.50;99.90;;;1.05;100.00;99215.75;5223643;28;20239;-61
2023/01/23 06:38:31;;;;;;;27.37;19.10;;;0.40;99.90;;;1.07;100.00;99225.28;5217794;28;20296;-60
2023/01/23 06:41:05;;;;;;;25.83;18.90;;;0.40;99.90;;;1.10;100.00;99232.28;5215355;28;20209;-60
2023/01/23 06:43:38;;;;;;;25.83;18.93;;;0.50;99.90;;;1.07;100.00;99239.50;5222411;28;20223;-59
2023/01/23 06:46:11;;;;;;;26.70;20.37;;;0.40;99.90;;;1.26;100.00;99232.44;5220593;28;20294;-61
2023/01/23 06:48:46;;;;;;;27.90;19.73;;;0.50;99.90;;;1.18;100.00;99234.09;5217983;28;20588;-60
2023/01/23 06:51:19;;;;;;;27.57;18.63;;;0.50;99.90;;;1.14;100.00;99229.41;5217535;28;20221;-60
2023/01/23 06:53:52;;;;;;;26.67;19.13;;;0.50;99.90;;;0.99;100.00;99238.59;5215717;28;20225;-61
2023/01/23 06:56:25;;;;;;;26.47;19.23;;;0.40;99.90;;;1.17;100.00;99228.84;5212754;28;20239;-58
2023/01/23 06:58:58;;;;;;;25.93;18.67;;;0.50;99.90;;;1.15;100.00;99241.28;5220299;28;20200;-60
2023/01/23 07:01:31;;;;;;;29.97;19.70;;;0.60;99.90;;;1.10;100.00;99238.22;5227584;28;20746;-61
2023/01/23 07:04:07;;;;;;;26.07;18.37;;;0.60;99.90;;;1.12;100.00;99251.91;5217663;28;20228;-61
2023/01/23 07:06:40;;;;;;;27.03;20.03;;;0.60;99.90;;;1.05;100.00;99246.84;5221873;28;20208;-61
2023/01/23 07:09:13;;;;;;;27.83;19.50;;;0.50;99.90;;;0.99;100.00;99252.81;5223455;28;20684;-61
2023/01/23 07:11:46;;;;;;;27.57;19.20;;;0.50;99.90;;;1.03;100.00;99260.91;5222501;28;20323;-59
2023/01/23 07:14:20;;;;;;;26.90;19.00;;;0.50;99.90;;;1.10;100.00;99263.41;5220514;28;20282;-61
2023/01/23 07:16:54;;;;;;;28.80;19.73;;;0.50;99.90;;;1.17;100.00;99262.47;5219069;28;20252;-60
2023/01/23 07:19:28;;;;;;;29.23;19.53;;;0.60;99.90;;;1.13;100.00;99267.91;5219598;28;20261;-61
2023/01/23 07:22:02;;;;;;;27.13;18.70;;;0.60;99.90;;;0.87;100.00;99268.28;5215668;28;20651;-61
2023/01/23 07:24:35;;;;;;;27.00;19.77;;;0.50;99.90;;;1.01;100.00;99261.44;5223244;28;20663;-61
2023/01/23 07:27:08;;;;;;;28.33;19.47;;;0.50;99.90;;;1.09;100.00;99263.25;5211710;28;20301;-61
2023/01/23 07:29:41;;;;;;;28.60;21.57;;;0.60;99.90;;;1.13;100.00;99262.84;5222107;28;20202;-61
2023/01/23 07:32:14;;;;;;;27.87;19.67;;;0.60;99.90;;;1.11;100.00;99257.63;5224730;28;20239;-61
2023/01/23 07:34:50;;;;;;;29.13;20.23;;;0.60;99.90;;;1.01;100.00;99261.44;5222867;28;20294;-61
2023/01/23 07:37:23;;;;;;;26.30;18.60;;;0.60;99.90;;;1.10;100.00;99257.47;5219746;28;20738;-61
2023/01/23 07:39:56;;;;;;;26.63;18.80;;;0.60;99.90;;;1.17;100.00;99259.06;5224109;28;20240;-61
2023/01/23 07:42:29;;;;;;;25.03;18.37;;;0.60;99.90;;;1.09;100.00;99261.63;5223810;28;20218;-61
2023/01/23 07:45:03;;;;;;;24.87;17.97;;;0.60;99.90;;;1.01;100.00;99256.41;5222208;28;20322;-61
2023/01/23 07:47:38;;;;;;;23.83;17.50;;;0.60;99.90;;;1.04;100.00;99250.09;5219667;28;20212;-61
2023/01/23 07:50:13;;;;;;;25.70;18.13;;;0.60;99.90;;;1.00;100.00;99250.50;5216688;28;20722;-62
2023/01/23 07:52:46;;;;;;;24.43;17.27;;;0.60;99.90;;;1.06;100.00;99248.69;5225343;28;20211;-61
2023/01/23 07:55:19;;;;;;;26.30;17.87;;;0.60;99.90;;;1.06;100.00;99250.25;5222323;28;20241;-61
2023/01/23 07:57:52;;;;;;;25.63;18.63;;;0.60;99.90;;;1.21;100.00;99248.66;5222214;28;20205;-61
2023/01/23 08:00:26;;;;;;;22.93;17.40;;;0.60;99.90;;;1.17;100.00;99249.88;5223121;28;20332;-61
2023/01/23 08:03:01;;;;;;;23.50;17.40;;;0.60;99.90;;;1.17;100.00;99254.94;5216203;28;20695;-60
2023/01/23 08:05:36;;;;;;;20.83;16.00;;;0.60;99.90;;;1.20;100.00;99245.22;5219163;28;20238;-61
2023/01/23 08:08:09;;;;;;;22.63;17.20;;;0.70;99.90;;;1.20;100.00;99245.22;5225218;28;20199;-61
2023/01/23 08:10:45;;;;;;;22.17;17.63;;;0.70;99.90;;;1.09;100.00;99241.47;5223637;28;20212;-61
2023/01/23 08:13:18;;;;;;;23.03;16.60;;;0.60;99.90;;;1.20;100.00;99249.34;5222366;28;20256;-60
2023/01/23 08:15:52;;;;;;;21.63;17.00;;;0.70;99.90;;;1.21;100.00;99251.16;5219937;28;20258;-61
2023/01/23 08:18:25;;;;;;;24.27;16.67;;;0.70;99.90;;;0.99;100.00;99247.78;5219532;28;20208;-61
2023/01/23 08:21:02;;;;;;;20.97;15.83;;;0.60;99.90;;;1.11;100.00;99245.03;5224780;28;20219;-61
2023/01/23 08:23:35;;;;;;;22.07;15.87;;;0.60;99.90;;;1.14;100.00;99231.91;5223499;28;20223;-60
2023/01/23 08:26:16;;;;;;;21.30;17.03;;;0.60;99.90;;;1.01;100.00;99236.28;5219979;28;20275;-62
2023/01/23 08:28:49;;;;;;;22.90;16.50;;;0.60;99.90;;;1.07;100.00;99244.53;5219744;28;20649;-61
2023/01/23 08:31:22;;;;;;;18.87;14.37;;;0.60;99.90;;;1.11;100.00;99247.56;5221591;28;20673;-61
2023/01/23 08:33:56;;;;;;;23.23;17.90;;;0.70;99.90;;;1.11;100.00;99254.22;5213504;28;20251;-61
2023/01/23 08:36:30;;;;;;;24.83;18.17;;;0.70;99.90;;;1.19;99.78;99242.53;5225380;28;20206;-61
2023/01/23 08:39:04;;;;;;;22.50;17.03;;;0.70;99.90;;;1.23;100.00;99243.06;5223401;28;20657;-62
2023/01/23 08:41:37;;;;;;;20.07;16.53;;;0.70;99.90;;;1.37;99.44;99248.78;5221065;28;20208;-61
2023/01/23 08:44:10;;;;;;;22.90;16.67;;;0.80;99.90;;;1.34;98.94;99252.75;5219316;28;20221;-60
2023/01/23 08:46:43;;;;;;;22.20;16.80;;;0.80;99.90;;;1.58;97.33;99252.13;5217141;28;20225;-61
2023/01/23 08:49:18;;;;;;;20.50;16.10;;;1.00;99.90;;;1.48;98.44;99263.50;5223947;28;20748;-61
2023/01/23 08:51:52;;;;;;;21.33;17.03;;;1.00;99.90;;;1.51;98.07;99263.84;5223002;28;20258;-61
2023/01/23 08:54:25;;;;;;;21.43;15.97;;;0.90;99.90;;;1.42;98.52;99263.69;5213302;28;20254;-61
2023/01/23 08:56:59;;;;;;;20.77;15.63;;;0.90;99.90;;;1.51;99.05;99253.78;5212118;28;20578;-61
2023/01/23 08:59:32;;;;;;;17.97;14.60;;;0.90;99.90;;;1.51;98.48;99254.66;5228526;28;20654;-61
2023/01/23 09:02:05;;;;;;;18.80;14.20;;;0.90;99.90;;;1.38;96.50;99266.59;5224066;28;20212;-61
2023/01/23 09:04:38;;;;;;;18.23;14.67;;;0.90;99.90;;;1.35;96.71;99267.13;5221108;28;20749;-61
2023/01/23 09:07:12;;;;;;;16.80;13.40;;;0.90;99.90;;;1.57;94.57;99264.53;5225293;28;20267;-61
2023/01/23 09:09:45;;;;;;;16.80;13.50;;;1.00;99.90;;;1.60;93.13;99264.88;5220685;28;20287;-60
2023/01/23 09:12:19;;;;;;;16.97;13.80;;;1.10;99.90;;;2.02;90.11;99273.00;5218968;28;20590;-61
2023/01/23 09:14:52;;;;;;;17.23;14.07;;;1.40;99.90;;;1.72;90.38;99270.47;5217024;28;20263;-60
2023/01/23 09:17:25;;;;;;;16.87;14.10;;;1.40;99.90;;;1.61;91.51;99276.78;5223626;28;20201;-61
2023/01/23 09:19:59;;;;;;;14.93;12.53;;;1.30;99.90;;;1.58;92.08;99281.47;5217803;28;20308;-60
2023/01/23 09:22:33;;;;;;;14.20;12.40;;;1.10;99.90;;;1.36;90.41;99263.00;5220476;28;20657;-61
2023/01/23 09:25:08;;;;;;;14.40;12.23;;;1.10;99.90;;;1.43;91.25;99270.53;5218331;28;20241;-61
2023/01/23 09:27:41;;;;;;;16.60;12.77;;;1.10;99.90;;;1.41;89.99;99276.13;5217586;28;20283;-61
2023/01/23 09:30:14;;;;;;;14.13;12.63;;;1.20;99.90;;;1.41;90.54;99294.66;5222222;28;20234;-61
2023/01/23 09:32:47;;;;;;;16.13;14.43;;;1.20;99.90;;;1.30;92.96;99287.47;5219626;28;20319;-61
2023/01/23 09:35:22;;;;;;;17.80;14.00;;;1.00;99.90;;;1.25;94.03;99286.94;5224675;28;20698;-61
2023/01/23 09:37:59;;;;;;;15.67;12.97;;;1.00;99.90;;;1.63;90.97;99290.47;5221262;28;20296;-61
2023/01/23 09:40:35;;;;;;;16.10;12.40;;;1.20;99.90;;;1.24;92.43;99280.09;5218126;28;20205;-61
2023/01/23 09:43:16;;;;;;;14.93;13.13;;;1.10;99.90;;;1.33;93.30;99272.72;5215190;28;20700;-61
2023/01/23 09:46:08;;;;;;;17.33;13.90;;;1.00;99.90;;;1.41;93.29;99271.09;5223124;28;20215;-61
2023/01/23 09:48:44;;;;;;;18.03;13.37;;;1.00;99.90;;;1.33;93.51;99273.63;5218985;28;20659;-61
2023/01/23 09:51:23;;;;;;;16.33;12.87;;;1.00;99.90;;;1.46;94.05;99264.94;5218589;28;20685;-61
2023/01/23 09:54:04;;;;;;;18.57;13.90;;;1.00;99.90;;;1.58;93.50;99266.38;5218173;28;20725;-60
2023/01/23 09:56:44;;;;;;;16.93;13.73;;;1.10;99.90;;;1.83;91.97;99275.06;5215973;28;20634;-61
2023/01/23 09:59:27;;;;;;;17.93;14.50;;;1.20;99.90;;;1.52;93.53;99270.72;5217549;28;20572;-61
2023/01/23 10:02:00;;;;;;;18.80;14.27;;;1.20;99.90;;;1.54;94.57;99274.28;5221320;28;20428;-61
2023/01/23 10:04:33;;;;;;;18.97;15.10;;;1.10;99.90;;;1.65;94.31;99263.81;5219980;28;20680;-61
2023/01/23 10:07:30;;;;;;;19.00;14.43;;;1.20;99.90;;;1.77;95.04;99261.78;5228999;28;20235;-61
2023/01/23 10:10:33;;;;;;;16.07;13.40;;;1.20;99.90;;;1.82;93.37;99262.31;5216217;28;20611;-60
2023/01/23 10:13:11;;;;;;;18.27;14.40;;;1.20;99.90;;;1.82;93.70;99267.34;5213266;28;20222;-61
2023/01/23 10:16:08;;;;;;;16.63;14.87;;;1.30;99.90;;;1.86;94.26;99260.31;5221300;28;20243;-61
2023/01/23 10:18:48;;;;;;;18.33;15.53;;;1.30;99.90;;;1.65;94.06;99252.81;5221359;28;20284;-60
2023/01/23 10:21:30;;;;;;;19.50;15.70;;;1.20;99.90;;;1.41;94.65;99251.84;5217311;28;20232;-60
2023/01/23 10:24:22;;;;;;;21.47;15.57;;;1.20;99.90;;;1.87;93.34;99258.69;5215555;28;20259;-61
2023/01/23 10:27:17;;;;;;;19.17;15.23;;;1.30;99.90;;;1.98;92.03;99263.31;5218419;28;20229;-60
2023/01/23 10:29:56;;;;;;;19.90;16.40;;;1.40;99.90;;;1.84;92.35;99259.25;5221374;28;20231;-61
2023/01/23 10:32:39;;;;;;;19.90;16.40;;;1.40;99.90;;;2.03;93.11;99252.09;5219198;28;20234;-61
2023/01/23 10:35:17;;;;;;;19.20;14.67;;;1.40;99.90;;;2.01;93.24;99249.44;5217276;28;20205;-59
2023/01/23 10:37:56;;;;;;;21.33;16.27;;;1.40;99.90;;;2.06;94.02;99244.00;5216539;28;20198;-60
2023/01/23 10:43:22;;;;;;;22.60;16.20;;;1.50;99.90;;;2.06;93.00;99254.06;5220847;28;20220;-62
2023/01/23 10:45:55;;;;;;;21.50;16.13;;;1.50;99.90;;;2.17;92.75;99246.97;5218799;28;20275;-58
2023/01/23 10:48:40;;;;;;;20.07;15.63;;;1.60;99.90;;;2.41;91.14;99240.38;5210391;28;20208;-62
2023/01/23 10:51:44;;;;;;;21.87;16.10;;;1.80;99.90;;;2.37;91.87;99243.25;5211462;28;20255;-60
2023/01/23 10:54:20;;;;;;;20.23;16.07;;;1.80;99.90;;;2.50;92.22;99248.06;5221399;28;20621;-62